McDaniels, KY (40152)

10:25 AM CDT on August 28, 2014 (GMT -0500)
Eveleigh Road | Change Station
CLOSE
Current Station
Personal Weather Station
Location: Leitchfield, KY
Elevation: 670 ft
Nearby Weather Stations

Elev 670 ft 37.58 °N, 86.34 °W | Updated 2 seconds ago

Clear
Clear
88.5 °F
Feels Like 103 °F
N
2.2
Wind Variable Wind from NNE
Gusts 3.1 mph

Today
High -- | Low -- °F
--% Chance of Precip.
Yesterday
High -- | Low -- °F
Precip. -- in
6:12 AM 7:20 PM
Waxing Crescent, 8% visible
Pressure 30.06 in
Visibility 10.0 miles
Clouds Clear
Heat Index 103 °F
Dew Point 79 °F
Humidity 73%
Rainfall 0.00 in
Snow Depth Not available.
UV 6 out of 12
Pollen 10.40 out of 12
Ozone Good
PM2.5 Moderate
Flu Activity Not available.
METAR KFTK 281458Z AUTO VRB02KT 10SM CLR 27/23 A3007 RMK AO2 SLP179 P0001 60001 T02660225 50003 $

More Conditions Fewer Conditions

Pressure 30.06 in
Visibility 10.0 miles
Clouds Clear
Heat Index 103 °F
Dew Point 79 °F
Humidity 73%
Rainfall 0.00 in
Snow Depth Not available.
UV 6 out of 12
Pollen 10.40 out of 12
Ozone Good
PM2.5 Moderate
Flu Activity Not available.
METAR KFTK 281458Z AUTO VRB02KT 10SM CLR 27/23 A3007 RMK AO2 SLP179 P0001 60001 T02660225 50003 $

More Conditions Fewer Conditions

10-Day Weather Forecast

Almanac

Astronomy

Aug. 28, 2014 Rise Set
Actual Time 6:12 AM CDT 7:20 PM CDT
Civil Twilight 5:45 AM CDT 7:47 PM CDT
Nautical Twilight 5:13 AM CDT 8:19 PM CDT
Astronomical Twilight 4:39 AM CDT 8:53 PM CDT
Moon 9:00 AM CDT 8:49 PM CDT
Length of Visible Light 14h 02m
Length of Day
13h 08m
Tomorrow will be 2m 16s shorter.
Waxing Crescent, 8% of the Moon is Illuminated
Today
Waxing Crescent
Sep 2
First Quarter
Sep 8
Full
Sep 15
Last Quarter
Sep 24
New

Today's Extremes

State Highs State Lows

Community

WunderPhotos

Upload Photos

1,747,984 photos uploaded!

Nearby

Air Quality

  Air Quality AQ Index Pollutant
Yesterday Good
PM10
Yesterday Good
OZONE
Current Moderate
PM2.5
Current Good
OZONE
Thursday Moderate
PM2.5
Thursday Good
OZONE
Friday Moderate
PM2.5
Friday Moderate
OZONE

Snow Depth

Station Depth Elevation
No new snow has been reported.

Earthquake Activity

City Distance Mag. Time & Date
No recent earthquake activity has been reported nearby.
Minimum magnitude displayed is 2.5.

Coastal Water Temperatures

Place Temperature
No Stations Reporting

Nearby Weather Stations